Latest Weather Observations for Milingimbi

IDD60801

Issued at 10:35 pm CST Saturday 23 August 2014 (issued every 30 minutes, with the page automatically refreshed every 10 minutes)

About weather observations | Map of weather stations | Latest weather observations for NT | Other Formats
Station Details ID: 014404 Name: MILINGIMBI AIRPORT Lat: -12.09 Lon: 134.89 Height: 15.0 m
Data from the previous 72 hours. | See also: Recent months at Milingimbi
Date/Time
CST
Temp
°C
App
Temp
°C
Dew
Point
Rel
Hum
%
Delta-T
°C
Wind Press
QNH
hPa
Press
MSL
hPa
Rain
since 9 am
mm
Dir
 
Spd
km/h
Gust
km/h
Spd
kts
Gust
kts
23/10:30pm 21.8 24.1 19.5 87 1.5 SE 6 9 3 5 1015.0 - 0.0
23/10:00pm 22.0 24.3 19.5 86 1.6 ENE 6 9 3 5 1014.9 - 0.0
23/09:30pm 21.8 24.3 19.0 84 1.8 ENE 4 6 2 3 1014.6 - 0.0
23/09:00pm 21.7 24.4 18.7 83 1.9 NE 2 6 1 3 1014.4 1014.3 0.0
23/08:30pm 21.9 24.7 17.9 78 2.5 CALM 0 0 0 0 1014.1 - 0.0
23/08:00pm 22.1 23.9 18.3 79 2.4 ENE 6 9 3 5 1013.7 - 0.0
23/07:30pm 22.5 24.3 17.4 73 3.1 NNE 4 7 2 4 1013.4 - 0.0
23/07:00pm 23.2 24.8 17.0 68 3.8 NNE 4 7 2 4 1013.1 - 0.0
23/06:30pm 24.3 25.4 16.6 62 4.7 N 6 9 3 5 1013.0 - 0.0
23/06:00pm 25.6 26.6 16.4 56 5.7 N 6 9 3 5 1012.8 1012.7 0.0
23/05:30pm 26.4 27.3 16.6 55 6.1 N 7 13 4 7 1012.5 - 0.0
23/05:00pm 27.1 27.1 15.1 47 7.3 N 9 15 5 8 1012.3 - 0.0
23/04:30pm 28.5 27.9 13.6 40 8.9 N 9 13 5 7 1012.4 - 0.0
23/04:00pm 29.6 27.9 9.7 29 11.2 ENE 9 15 5 8 1012.4 - 0.0
23/03:30pm 29.4 27.4 10.0 30 10.9 E 11 19 6 10 1012.7 - 0.0
23/03:00pm 29.7 27.9 10.8 31 10.8 NE 11 20 6 11 1012.9 1012.8 0.0
23/02:30pm 29.6 26.4 8.6 27 11.6 E 15 24 8 13 1012.9 - 0.0
23/02:00pm 29.2 26.0 8.3 27 11.4 E 15 20 8 11 1013.2 - 0.0
23/01:30pm 28.6 24.9 4.2 21 12.4 ENE 13 19 7 10 1013.7 - 0.0
23/01:00pm 28.3 25.8 9.6 31 10.4 E 13 20 7 11 1014.2 - 0.0
23/12:30pm 28.4 25.9 11.0 34 9.9 ESE 15 24 8 13 1014.7 - 0.0
23/12:00pm 26.3 23.3 9.2 34 9.4 E 15 24 8 13 1015.0 1014.9 0.0
23/11:30am 27.1 24.4 9.0 32 9.9 E 13 30 7 16 1015.4 - 0.0
23/11:00am 27.6 23.3 5.2 24 11.5 SE 17 24 9 13 1015.6 - 0.0
23/10:30am 26.7 22.1 5.6 26 10.9 ESE 19 24 10 13 1015.8 - 0.0
23/10:00am 25.8 23.2 9.2 35 9.1 SSE 13 20 7 11 1015.9 - 0.0
23/09:30am 23.9 22.0 11.9 47 6.8 SSE 13 17 7 9 1016.1 - 0.0
23/09:00am 22.5 21.6 12.7 54 5.6 SSE 9 13 5 7 1016.1 1016.0 0.0
23/08:30am 19.9 18.8 10.6 55 5.0 S 7 13 4 7 1016.1 - 0.0
23/08:00am 17.8 16.4 9.7 59 4.3 SSE 7 11 4 6 1015.9 - 0.0
23/07:30am 15.8 14.5 9.9 68 3.1 SSE 7 9 4 5 1015.6 - 0.0
23/07:00am 13.2 11.9 9.3 77 2.0 SE 6 7 3 4 1015.4 - 0.0
23/06:30am 13.0 11.8 9.4 79 1.8 S 6 7 3 4 1015.1 - 0.0
23/06:00am 13.2 11.9 9.3 77 2.0 SSE 6 7 3 4 1014.8 1014.7 0.0
23/05:30am 13.3 12.0 9.2 76 2.1 ESE 6 7 3 4 1014.6 - 0.0
23/05:00am 13.1 12.2 9.2 77 2.0 SE 4 6 2 3 1014.4 - 0.0
23/04:30am 13.2 12.9 8.5 73 2.3 ENE 0 0 0 0 1014.3 - 0.0
23/04:00am 14.5 14.2 8.5 67 3.0 CALM 0 6 0 3 1014.4 - 0.0
23/03:30am 15.1 13.4 8.3 64 3.4 SSE 7 11 4 6 1014.5 - 0.0
23/03:00am 15.3 13.7 7.8 61 3.7 E 6 7 3 4 1014.5 1014.4 0.0
23/02:30am 17.0 14.7 7.6 54 4.7 SE 9 15 5 8 1014.5 - 0.0
23/02:00am 16.8 15.0 7.2 53 4.8 E 6 9 3 5 1014.7 - 0.0
23/01:30am 17.6 15.5 6.8 49 5.4 SE 7 11 4 6 1014.9 - 0.0
23/01:00am 17.8 15.8 7.0 49 5.4 SE 7 9 4 5 1015.1 - 0.0
23/12:30am 19.2 16.4 7.0 45 6.2 SE 11 15 6 8 1015.4 - 0.0
23/12:00am 18.4 16.4 6.9 47 5.8 SE 7 13 4 7 1015.6 1015.5 0.0
 
Date/Time
CST
Temp
°C
App
Temp
°C
Dew
Point
Rel
Hum
%
Delta-T
°C
Wind Press
QNH
hPa
Press
MSL
hPa
Rain
since 9 am
mm
Dir
 
Spd
km/h
Gust
km/h
Spd
kts
Gust
kts
22/11:30pm 19.9 17.0 6.3 41 6.8 SE 11 13 6 7 1015.7 - 0.0
22/11:00pm 20.7 17.4 6.3 39 7.2 SE 13 17 7 9 1015.4 - 0.0
22/10:30pm 21.4 18.0 7.6 41 7.1 SE 15 22 8 12 1015.4 - 0.0
22/10:00pm 22.1 18.6 8.6 42 7.1 SE 17 24 9 13 1015.3 - 0.0
22/09:30pm 22.8 19.0 8.9 41 7.4 SE 19 30 10 16 1014.9 - 0.0
22/09:00pm 22.7 20.1 9.5 43 7.1 ESE 13 19 7 10 1014.5 1014.4 0.0
22/08:30pm 23.6 21.9 12.6 50 6.3 ESE 13 19 7 10 1014.2 - 0.0
22/08:00pm 23.4 22.3 12.1 49 6.4 E 9 15 5 8 1014.0 - 0.0
22/07:30pm 22.2 22.8 15.8 67 3.8 ENE 7 11 4 6 1013.6 - 0.0
22/07:00pm 22.0 21.0 10.2 47 6.4 NE 6 7 3 4 1013.2 - 0.0
22/06:30pm 23.7 22.4 9.3 40 7.8 ENE 6 7 3 4 1012.7 - 0.0
22/06:00pm 25.9 23.8 8.4 33 9.4 ENE 9 13 5 7 1012.3 1012.2 0.0
22/05:30pm 27.2 25.1 6.6 27 10.8 ENE 7 13 4 7 1012.2 - 0.0
22/05:00pm 27.5 24.1 5.7 25 11.3 ENE 13 20 7 11 1012.1 - 0.0
22/04:30pm 28.1 25.3 5.0 23 11.9 NE 9 17 5 9 1012.0 - 0.0
22/04:00pm 28.5 25.4 5.4 23 12.0 NE 11 17 6 9 1011.8 - 0.0
22/03:30pm 28.9 25.4 3.7 20 12.7 NE 11 15 6 8 1011.8 - 0.0
22/03:00pm 28.9 25.7 5.1 22 12.3 ENE 11 20 6 11 1012.1 1012.0 0.0
22/02:30pm 29.2 25.5 4.6 21 12.7 ENE 13 20 7 11 1012.5 - 0.0
22/02:00pm 29.2 25.9 4.6 21 12.7 E 11 19 6 10 1013.0 - 0.0
22/01:30pm 29.0 24.8 3.8 20 12.8 E 15 22 8 12 1013.4 - 0.0
22/01:00pm 29.0 25.3 6.4 24 12.0 E 15 24 8 13 1013.9 - 0.0
22/12:30pm 28.1 24.4 6.2 25 11.5 E 15 20 8 11 1014.4 - 0.0
22/12:00pm 27.7 23.9 7.5 28 10.8 ESE 17 28 9 15 1015.0 1014.9 0.0
22/11:30am 27.6 23.4 7.5 28 10.8 ESE 19 28 10 15 1015.6 - 0.0
22/11:00am 27.2 21.5 4.9 24 11.4 SE 24 32 13 17 1016.0 - 0.0
22/10:30am 27.2 22.7 6.0 26 11.0 SE 19 28 10 15 1016.4 - 0.0
22/10:00am 25.8 22.8 9.2 35 9.1 SE 15 24 8 13 1016.7 - 0.0
22/09:30am 23.8 21.6 13.4 52 6.0 SE 17 24 9 13 1017.0 - 0.0
22/09:00am 21.8 20.7 13.2 58 4.9 SE 11 15 6 8 1016.9 1016.8 0.0
22/08:30am 19.5 18.0 14.1 71 3.1 S 15 20 8 11 1016.9 - 0.0
22/08:00am 18.3 17.9 14.2 77 2.4 SSE 9 13 5 7 1016.7 - 0.0
22/07:30am 17.0 16.7 14.3 84 1.5 SSE 9 13 5 7 1016.4 - 0.0
22/07:00am 15.8 15.4 14.2 90 0.9 SSE 9 11 5 6 1016.3 - 0.0
22/06:30am 15.3 15.1 13.5 89 1.0 SE 7 11 4 6 1016.0 - 0.0
22/06:00am 15.5 15.2 13.3 87 1.2 SE 7 9 4 5 1015.8 1015.7 0.0
22/05:30am 15.6 15.4 13.1 85 1.4 SSE 6 9 3 5 1015.4 - 0.0
22/05:00am 16.4 16.2 13.5 83 1.6 SSE 7 11 4 6 1015.2 - 0.0
22/04:30am 16.8 16.2 13.5 81 1.9 SE 9 11 5 6 1015.0 - 0.0
22/04:00am 17.2 16.7 13.7 80 2.0 SSE 9 13 5 7 1014.9 - 0.0
22/03:30am 17.3 16.7 13.4 78 2.2 SE 9 11 5 6 1015.0 - 0.0
22/03:00am 17.4 17.1 13.3 77 2.3 SE 7 11 4 6 1014.9 1014.8 0.0
22/02:30am 17.9 17.5 13.0 73 2.7 SE 7 11 4 6 1015.1 - 0.0
22/02:00am 19.0 17.7 13.6 71 3.1 SE 13 17 7 9 1015.3 - 0.0
22/01:30am 20.5 19.1 14.4 68 3.6 ESE 15 20 8 11 1015.5 - 0.0
22/01:00am 20.6 18.6 13.8 65 3.9 ESE 17 22 9 12 1015.7 - 0.0
22/12:30am 21.2 19.4 13.4 61 4.5 ESE 15 24 8 13 1015.7 - 0.0
22/12:00am 21.2 19.4 13.4 61 4.5 ESE 15 20 8 11 1015.9 1015.8 0.0
 
Date/Time
CST
Temp
°C
App
Temp
°C
Dew
Point
Rel
Hum
%
Delta-T
°C
Wind Press
QNH
hPa
Press
MSL
hPa
Rain
since 9 am
mm
Dir
 
Spd
km/h
Gust
km/h
Spd
kts
Gust
kts
21/11:30pm 21.4 20.0 13.3 60 4.6 E 13 19 7 10 1016.0 - 0.0
21/11:00pm 21.6 20.0 12.7 57 5.1 ESE 13 20 7 11 1016.0 - 0.0
21/10:30pm 21.7 20.2 13.1 58 4.9 ESE 13 19 7 10 1016.0 - 0.0
21/10:00pm 22.1 20.5 12.9 56 5.3 ESE 13 17 7 9 1015.6 - 0.0
21/09:30pm 22.4 21.0 12.1 52 5.8 SE 11 17 6 9 1015.3 - 0.0
21/09:00pm 23.0 20.6 11.4 48 6.5 SE 15 20 8 11 1014.9 1014.8 0.0
21/08:30pm 23.0 21.7 11.4 48 6.5 SE 9 13 5 7 1014.6 - 0.0
21/08:00pm 23.7 23.5 14.7 57 5.3 E 9 15 5 8 1014.2 - 0.0
21/07:30pm 24.0 24.7 16.0 61 4.9 E 7 13 4 7 1013.9 - 0.0
21/07:00pm 24.2 25.1 16.5 62 4.7 ENE 7 11 4 6 1013.4 - 0.0
21/06:30pm 24.6 25.5 16.6 61 4.9 ENE 7 15 4 8 1013.0 - 0.0
21/06:00pm 25.4 25.5 15.4 54 6.0 ENE 9 13 5 7 1012.6 1012.5 0.0
21/05:30pm 26.4 25.7 14.2 47 7.3 ENE 11 20 6 11 1012.4 - 0.0
21/05:00pm 26.8 24.7 11.3 38 8.8 ENE 13 20 7 11 1012.2 - 0.0
21/04:30pm 28.2 27.0 11.7 36 9.5 ENE 9 15 5 8 1011.9 - 0.0
21/04:00pm 28.7 27.0 11.3 34 10.0 E 11 19 6 10 1011.9 - 0.0
21/03:30pm 29.1 26.4 10.3 31 10.6 E 15 24 8 13 1011.9 - 0.0
21/03:00pm 29.5 27.0 9.6 29 11.2 E 13 20 7 11 1012.2 1012.1 0.0
21/02:30pm 29.1 26.0 8.7 28 11.2 E 15 26 8 14 1012.5 - 0.0
21/02:00pm 29.0 25.5 8.7 28 11.2 E 17 28 9 15 1013.0 - 0.0
21/01:30pm 28.8 25.6 10.0 31 10.6 E 17 28 9 15 1013.5 - 0.0
21/01:00pm 29.0 26.0 10.6 32 10.5 E 17 24 9 13 1013.9 - 0.0
21/12:30pm 28.5 24.6 8.7 29 10.9 E 19 32 10 17 1014.4 - 0.0
21/12:00pm 27.9 24.3 9.7 32 10.1 ESE 19 30 10 16 1015.0 1014.9 0.0
21/11:30am 27.7 24.3 11.3 36 9.4 ESE 20 32 11 17 1015.3 - 0.0
21/11:00am 26.8 23.4 11.3 38 8.8 ESE 20 30 11 16 1015.8 - 0.0
21/10:30am 25.9 22.1 9.7 36 8.9 SE 20 30 11 16 1016.1 - 0.0
21/10:00am 25.5 21.1 7.6 32 9.5 SSE 20 30 11 16 1016.1 - 0.0
21/09:30am 24.3 21.4 12.3 47 6.9 SSE 19 30 10 16 1016.2 - 0.0
21/09:00am 21.9 20.8 14.3 62 4.4 SSE 13 20 7 11 1016.2 1016.1 0.0
21/08:30am 19.7 17.6 13.6 68 3.5 S 17 24 9 13 1016.1 - 0.0
21/08:00am 18.4 17.1 13.7 74 2.7 S 13 20 7 11 1015.8 - 0.0
21/07:30am 16.6 16.0 13.5 82 1.7 S 9 15 5 8 1015.5 - 0.0
21/07:00am 15.3 15.2 13.3 88 1.1 S 6 7 3 4 1015.1 - 0.0
21/06:30am 16.2 16.0 13.5 84 1.5 SSE 7 13 4 7 1014.5 - 0.0
21/06:00am 16.7 16.3 14.0 84 1.5 SSE 9 13 5 7 1014.1 1014.0 0.0
21/05:30am 16.7 16.7 14.2 85 1.4 SSE 7 11 4 6 1013.7 - 0.0
21/05:00am 17.2 17.2 14.3 83 1.7 SSE 7 11 4 6 1013.5 - 0.0
21/04:30am 17.9 17.3 14.6 81 1.9 SSE 11 15 6 8 1013.2 - 0.0
21/04:00am 17.9 17.8 15.0 83 1.7 SSE 9 13 5 7 1013.2 - 0.0
21/03:30am 17.7 18.1 14.8 83 1.7 SE 6 7 3 4 1013.4 - 0.0
21/03:00am 18.1 18.5 14.8 81 1.9 SE 6 7 3 4 1013.6 1013.5 0.0
21/02:30am 18.7 18.9 14.8 78 2.3 SE 7 9 4 5 1013.9 - 0.0
21/02:00am 19.6 19.5 15.0 75 2.7 SE 9 11 5 6 1014.1 - 0.0
21/01:30am 20.7 20.0 15.5 72 3.1 ESE 13 20 7 11 1014.3 - 0.0
21/01:00am 20.9 20.3 15.7 72 3.1 ESE 13 20 7 11 1014.5 - 0.0
21/12:30am 21.2 20.6 15.7 71 3.3 ESE 13 20 7 11 1014.6 - 0.0
21/12:00am 21.5 20.5 15.6 69 3.5 ESE 15 20 8 11 1015.0 1014.9 0.0
 
Date/Time
CST
Temp
°C
App
Temp
°C
Dew
Point
Rel
Hum
%
Delta-T
°C
Wind Press
QNH
hPa
Press
MSL
hPa
Rain
since 9 am
mm
Dir
 
Spd
km/h
Gust
km/h
Spd
kts
Gust
kts
20/11:30pm 21.9 20.8 15.3 66 3.9 E 15 22 8 12 1015.0 - 0.0
20/11:00pm 21.5 21.1 15.3 68 3.7 ESE 11 15 6 8 1015.1 - 0.0

Other Formats:

Comma delimited format used in spreadsheet applications
http://www.bom.gov.au/fwo/IDD60801/IDD60801.94140.axf

JavaScript Object Notation format (JSON) in row-major order
http://www.bom.gov.au/fwo/IDD60801/IDD60801.94140.json